• Join FlightAware (Why Join?)
  • Login
  • US Flag 
06:57PM EDT


 

Airport Tracker/Info


-or-


 

Live Flight TrackerFlight Track Log ✈ RPA3468 ✈ 19-May-2013 ✈ KDCA - KBTV

Flight Track Log - Related Links

Times and Time Zones

All times are in EDT time to prevent confusion due to time zone crossing. See the RPA3468 flight status page for this flight to view local times or setup timezone preferences in your user account.

Time Position Orientation Groundspeed Altitude Reporting Facility
EDT Latitude Longitude Course Direction KTS MPH feet Rate Location/Type
08:09PM 38.8333 -77.0333 61° Northeast 151 174 1,300  Level Potomac TRACON
08:11PM 38.7469 -76.9731 151° Southeast 182 209 5,300 2,340 Climbing Washington Center
08:12PM 39.0153 -76.5695 57° Northeast  Level FlightAware Approximate
08:12PM 38.8203 -76.9372 21° North 145 167 8,500  Level Washington Center
08:13PM 39.0593 -76.4517 63° Northeast  Level FlightAware Approximate
08:13PM 38.9061 -76.9175 10° North 209 241 10,800  Level Washington Center
08:14PM 39.1080 -76.3369 61° Northeast  Level FlightAware Approximate
08:14PM 39.0022 -76.8925 11° North 286 329 13,000  Level Washington Center
08:15PM 39.0594 -76.7919 54° Northeast 311 358 15,400 2,400 Climbing Washington Center
08:16PM 39.0797 -76.6531 79° East 341 392 17,800 2,160 Climbing Washington Center
08:17PM 39.1017 -76.5144 78° East 360 414 19,700 1,860 Climbing Washington Center
08:18PM 39.1256 -76.3703 78° East 390 449 21,600 1,620 Climbing Washington Center
08:19PM 39.1472 -76.2233 79° East 403 464 23,000 660 Climbing Washington Center
08:20PM 39.1686 -76.0842 79° East 423 487 23,000 660 Level Washington Center
08:21PM 39.1858 -75.9317 82° East 429 494 24,300 1,380 Climbing Washington Center
08:22PM 39.2528 -75.8061 55° Northeast 420 483 25,800 1,380 Climbing Washington Center
08:23PM 39.3406 -75.6908 45° Northeast 421 484 27,200 1,200 Climbing Washington Center
08:24PM 39.4281 -75.5781 45° Northeast 427 491 28,300 1,140 Climbing Washington Center
08:26PM 39.6256 -75.3206 45° Northeast 460 529 30,800 1,140 Climbing New York Center
08:27PM 39.7114 -75.1992 47° Northeast 460 529 32,000 1,020 Climbing New York Center
08:28PM 39.7864 -75.0878 49° Northeast 460 529 32,900 1,020 Climbing New York Center
08:29PM 39.8700 -74.9686 48° Northeast 455 524 34,100 1,020 Climbing New York Center
08:30PM 39.9622 -74.8386 47° Northeast 443 510 35,000 420 Climbing New York Center
08:31PM 40.0561 -74.7683 30° Northeast 438 504 35,000  Level New York Center
08:32PM 40.1681 -74.7286 15° North 411 473 35,000  Level New York Center
08:33PM 40.2800 -74.6858 16° North 411 473 35,000  Level New York Center
08:34PM 40.3958 -74.6461 15° North 416 479 35,000  Level New York Center
08:35PM 40.5097 -74.6036 16° North 421 484 35,000  Level New York Center
08:36PM 40.6256 -74.5689 13° North 421 484 35,000  Level New York Center
08:39PM 40.9172 -74.4644 15° North 411 473 35,000  Level Boston Center
08:40PM 41.0303 -74.4239 15° North 416 479 35,000  Level Boston Center
08:41PM 41.1625 -74.3839 13° North 423 487 35,000  Level Boston Center
08:42PM 41.2842 -74.3322 18° North 429 494 35,000  Level Boston Center
08:43PM 41.3994 -74.2942 14° North 424 488 35,000  Level Boston Center
08:44PM 41.5125 -74.2531 15° North 417 480 35,000  Level Boston Center
08:45PM 41.6194 -74.2172 14° North 427 491 35,000  Level Boston Center
08:47PM 41.8375 -74.1425 14° North 407 468 35,000  Level Boston Center
08:48PM 41.9506 -74.1011 15° North 402 463 35,000  Level Boston Center
08:49PM 42.0575 -74.0619 15° North 402 463 35,000 -240 Level Boston Center
08:50PM 42.1664 -74.0228 15° North 402 463 34,600 -960 Descending Boston Center
08:51PM 42.2733 -73.9833 15° North 402 463 33,100 -1,320 Descending Boston Center
08:52PM 42.3842 -73.9411 16° North 402 463 32,000 -600 Descending Boston Center
08:53PM 42.4994 -73.8989 15° North 408 470 32,000  Level Boston Center
08:54PM 42.6103 -73.8564 16° North 414 476 32,000  Level Boston Center
08:55PM 42.7214 -73.8136 16° North 414 476 32,000  Level Boston Center
08:56PM 42.8303 -73.7736 15° North 414 476 32,000  Level Boston Center
08:57PM 42.9350 -73.7333 16° North 403 464 32,000 -360 Level Boston Center
08:58PM 43.0436 -73.6958 14° North 397 457 31,300 -1,200 Descending Boston Center
08:59PM 43.1650 -73.6500 15° North 402 463 29,700 -2,100 Descending Boston Center
09:00PM 43.2928 -73.6011 16° North 396 456 26,800 -2,280 Descending Boston Center
09:01PM 43.3972 -73.5603 16° North 390 449 24,700 -1,560 Descending Boston Center
09:02PM 43.4956 -73.5247 15° North 376 433 23,700 -1,860 Descending Boston Center
09:03PM 43.5897 -73.4919 14° North 364 419 21,000 -2,700 Descending Boston Center
09:04PM 43.6839 -73.4564 15° North 351 404 18,300 -2,520 Descending Boston Center
09:05PM 43.7694 -73.4233 16° North 327 376 16,000 -2,400 Descending Boston Center
09:06PM 43.8531 -73.3931 15° North 316 364 13,600 -2,100 Descending Boston Center
09:07PM 43.9325 -73.3625 15° North 305 351 11,900 -1,560 Descending Boston Center
09:08PM 44.0100 -73.3319 16° North 290 334 10,500 -1,500 Descending Boston Center
09:09PM 44.0853 -73.3014 16° North 283 326 8,900 -1,500 Descending Boston Center
09:10PM 44.1625 -73.2736 14° North 283 326 7,500 -1,380 Descending Boston Center
09:11PM 44.2375 -73.2747 359° North 278 320 6,200 -1,200 Descending Boston Center
09:12PM 44.3122 -73.2931 350° North 271 312 5,200 -960 Descending Boston Center
09:13PM 44.3767 -73.3086 350° North 248 285 4,300 -1,200 Descending Boston Center
09:14PM 44.4411 -73.3328 345° North 237 273 2,800 -780 Descending Boston Center
09:15PM 44.4994 -73.3628 340° North 245 282 2,800 -300 Level Boston Center
09:16PM 44.5536 -73.3372 19° North 214 246 2,300 -300 Descending Boston Center
09:17PM 44.5458 -73.2761 100° East 124 143 2,200 -120 Descending Boston Center